Savannah, GA (31418)

12:21 AM EST on January 18, 2017 (GMT -0500)
Garden City | | Change Station
Active Advisory: Flood Warning

Elev 0 ft 32.11 °N, 81.15 °W | Updated 21 seconds ago

Partly Cloudy
Partly Cloudy
62.6 °F
Feels Like 62.6 °F
N
0.0
Wind Variable Wind from West
Gusts 0.0 mph

Today
High -- | Low -- °F
--% Chance of Precip.
Yesterday
High -- | Low -- °F
Precip. -- in
Pressure 30.18 in
Visibility 10.0 miles
Clouds Scattered Clouds 15000 ft
Dew Point 57 °F
Humidity 82%
Rainfall 0.00 in
Snow Depth Not available.
7:24 AM 5:45 PM
Waning Gibbous, 66% visible
METAR KSAV 180453Z 21005KT 10SM SCT150 16/14 A3018 RMK AO2 SLP219 T01610139 402440139
Pressure 30.18 in
Visibility 10.0 miles
Clouds Scattered Clouds 15000 ft
Dew Point 57 °F
Humidity 82%
Rainfall 0.00 in
Snow Depth Not available.
7:24 AM 5:45 PM
Waning Gibbous, 66% visible
METAR KSAV 180453Z 21005KT 10SM SCT150 16/14 A3018 RMK AO2 SLP219 T01610139 402440139

Get Your Daily Forecast Email!

Thanks for signing up!

Be on the lookout for a verification email in your inbox.

You'll start receiving the daily forecast at 8 AM.

×

10-Day Weather Forecast

Almanac

Astronomy

Jan. 18, 2017 Rise Set
Actual Time
Civil Twilight
Nautical Twilight
Astronomical Twilight
Moon
Length of Visible Light
Length of Day
Tomorrow will be .
, % of the Moon is Illuminated

Today's Extremes

State Highs State Lows

Community

WunderPhotos

Upload Photos

1,962,540 photos uploaded!

WunderBlog® & News

Nearby

Air Quality

  Air Quality AQ Index Pollutant
Not available.

Snow Depth

Station Depth Elevation

Earthquake Activity

City Distance Mag. Time & Date
Minimum magnitude displayed is 2.5.

Coastal Water Temperatures

Place Temperature

Stations

Nearby Weather Stations

Station Location Temp. Windchill Dew Point Humidity Wind Precip. Elev Updated Type
                   

Watches & Warnings

Flood Warning
Issued: 7:52 PM EST Jan. 17, 2017 – National Weather Service

The Flood Warning continues for
the Ogeechee river near Eden.
* At 7 PM Tuesday the stage was 11.5 feet.
* Flood stage is 11.0 feet.
* Minor flooding is occurring.
* Forecast, the river is expected to drop below flood stage early
Thursday afternoon.
* At 11.5 feet, the Morgans bridge boat ramp is inaccessible.


Lat... Lon 3246 8160 3252 8152 3227 8140 3208 8133
          3206 8143 3223 8150